createdAt,value
2022-09-07T00:02:22.614Z,32.50
2022-09-07T00:04:53.100Z,32.53
2022-09-07T00:07:21.734Z,32.49
2022-09-07T00:09:51.417Z,32.49
2022-09-07T00:12:20.696Z,32.43
2022-09-07T00:14:50.084Z,32.42
2022-09-07T00:25:06.922Z,32.27
2022-09-07T00:27:36.051Z,32.22
2022-09-07T00:30:05.365Z,32.15
2022-09-07T00:32:33.223Z,32.11
2022-09-07T00:35:01.451Z,32.06
2022-09-07T00:37:30.772Z,32.04
2022-09-07T00:40:00.276Z,32.05
2022-09-07T00:42:29.932Z,32.07
2022-09-07T00:49:22.553Z,32.04
2022-09-07T00:51:57.877Z,32.09
2022-09-07T00:54:33.062Z,32.10
2022-09-07T00:57:01.596Z,32.11
2022-09-07T00:59:40.360Z,32.12
2022-09-07T01:02:12.706Z,32.09
2022-09-07T01:04:51.476Z,32.09
2022-09-07T01:12:25.204Z,32.11
2022-09-07T01:14:55.109Z,32.10
2022-09-07T01:17:42.056Z,32.09
2022-09-07T01:20:40.811Z,32.05
2022-09-07T01:23:30.832Z,32.06
2022-09-07T01:26:25.333Z,32.06
2022-09-07T01:29:06.792Z,32.08
2022-09-07T01:37:20.793Z,32.08
2022-09-07T01:40:00.523Z,31.97
2022-09-07T01:42:34.510Z,31.79
2022-09-07T01:45:05.261Z,31.72
2022-09-07T01:47:42.413Z,31.70
2022-09-07T01:50:25.903Z,31.62
2022-09-07T01:53:21.496Z,31.31
2022-09-07T02:01:46.589Z,31.06
2022-09-07T02:04:22.471Z,31.05
2022-09-07T02:06:53.573Z,31.06
2022-09-07T02:09:53.711Z,31.03
2022-09-07T02:12:54.193Z,30.97
2022-09-07T02:15:43.332Z,31.00
2022-09-07T02:18:16.965Z,30.99
2022-09-07T02:26:06.703Z,31.04
2022-09-07T02:28:36.704Z,31.02
2022-09-07T02:31:05.087Z,30.96
2022-09-07T02:33:33.645Z,30.91
2022-09-07T02:36:04.249Z,30.90
2022-09-07T02:38:33.120Z,30.92
2022-09-07T02:41:03.486Z,30.91
2022-09-07T02:48:14.017Z,30.89
2022-09-07T02:51:07.709Z,30.88
2022-09-07T02:53:43.543Z,30.85
2022-09-07T02:56:31.442Z,30.87
2022-09-07T02:59:05.657Z,30.80
2022-09-07T03:01:41.433Z,30.69
2022-09-07T03:04:15.222Z,30.66
2022-09-07T03:12:13.286Z,30.52
2022-09-07T03:14:44.486Z,30.46
2022-09-07T03:17:13.332Z,30.42
2022-09-07T03:19:41.802Z,30.42
2022-09-07T03:22:11.630Z,30.42
2022-09-07T03:24:45.119Z,30.45
2022-09-07T03:27:13.074Z,30.45
2022-09-07T03:34:23.162Z,30.38
2022-09-07T03:36:52.361Z,30.39
2022-09-07T03:39:23.768Z,30.40
2022-09-07T03:41:52.298Z,30.34
2022-09-07T03:44:24.143Z,30.32
2022-09-07T03:46:51.835Z,30.31
2022-09-07T03:49:20.990Z,30.31
2022-09-07T03:51:52.786Z,30.32
2022-09-07T04:01:36.960Z,30.33
2022-09-07T04:04:04.408Z,30.34
2022-09-07T04:06:32.981Z,30.36
2022-09-07T04:09:11.234Z,30.37
2022-09-07T04:11:40.886Z,30.32
2022-09-07T04:14:11.463Z,30.30
2022-09-07T04:16:42.492Z,30.29
2022-09-07T04:19:11.741Z,30.26
2022-09-07T04:25:04.708Z,30.19
2022-09-07T04:27:32.618Z,30.19
2022-09-07T04:30:01.906Z,30.18
2022-09-07T04:32:31.270Z,30.16
2022-09-07T04:35:00.704Z,30.15
2022-09-07T04:37:30.676Z,30.13
2022-09-07T04:40:02.702Z,30.12
2022-09-07T04:45:12.976Z,30.12
2022-09-07T04:47:47.971Z,30.12
2022-09-07T04:50:20.247Z,30.08
2022-09-07T04:52:52.456Z,30.06
2022-09-07T04:55:21.776Z,30.04
2022-09-07T04:57:51.448Z,30.04
2022-09-07T05:00:21.163Z,30.01
2022-09-07T05:05:42.953Z,29.97
2022-09-07T05:08:13.771Z,29.96
2022-09-07T05:10:54.346Z,29.94
2022-09-07T05:13:22.501Z,29.90
2022-09-07T05:15:51.688Z,29.87
2022-09-07T05:18:21.036Z,29.84
2022-09-07T05:20:50.445Z,29.81
2022-09-07T05:23:17.921Z,29.76
2022-09-07T05:36:22.620Z,29.71
2022-09-07T05:38:54.692Z,29.72
2022-09-07T05:41:27.927Z,29.69
2022-09-07T05:46:44.979Z,29.69
2022-09-07T05:54:22.986Z,29.63
2022-09-07T05:56:51.709Z,29.62
2022-09-07T05:59:20.788Z,29.58
2022-09-07T06:01:51.666Z,29.56
2022-09-07T06:04:21.258Z,29.55
2022-09-07T06:07:11.038Z,29.53
2022-09-07T06:17:22.472Z,29.40
2022-09-07T06:19:54.715Z,29.42
2022-09-07T06:22:22.702Z,29.42
2022-09-07T06:24:51.625Z,29.45
2022-09-07T06:27:20.933Z,29.44
2022-09-07T06:29:53.117Z,29.44
2022-09-07T06:35:15.303Z,29.43
2022-09-07T06:42:04.131Z,29.37
2022-09-07T06:44:32.914Z,29.36
2022-09-07T06:47:03.985Z,29.35
2022-09-07T06:49:34.304Z,29.31
2022-09-07T06:52:02.820Z,29.28
2022-09-07T06:57:21.132Z,29.27
2022-09-07T07:04:37.769Z,29.21
2022-09-07T07:07:14.417Z,29.22
2022-09-07T07:09:45.159Z,29.21
2022-09-07T07:12:12.646Z,29.18
2022-09-07T07:14:44.995Z,29.17
2022-09-07T07:17:13.752Z,29.15
2022-09-07T07:19:44.252Z,29.17
2022-09-07T07:27:14.416Z,29.15
2022-09-07T07:29:43.264Z,29.13
2022-09-07T07:32:12.292Z,29.11
2022-09-07T07:34:41.610Z,29.07
2022-09-07T07:37:11.655Z,29.10
2022-09-07T07:42:32.556Z,29.04
2022-09-07T07:51:22.057Z,28.96
2022-09-07T07:53:51.897Z,28.93
2022-09-07T07:56:21.744Z,28.91
2022-09-07T07:58:51.393Z,28.91
2022-09-07T08:01:21.839Z,28.91
2022-09-07T08:03:51.215Z,28.91
2022-09-07T08:06:22.618Z,28.89
2022-09-07T08:08:52.753Z,28.88
2022-09-07T08:15:47.272Z,28.87
2022-09-07T08:18:16.998Z,28.85
2022-09-07T08:20:44.600Z,28.82
2022-09-07T08:23:12.957Z,28.82
2022-09-07T08:25:51.756Z,28.82
2022-09-07T08:28:24.088Z,28.77
2022-09-07T08:30:53.054Z,28.76
2022-09-07T08:42:41.891Z,28.69
2022-09-07T08:45:16.217Z,28.67
2022-09-07T08:47:55.415Z,28.64
2022-09-07T08:50:35.623Z,28.61
2022-09-07T08:53:15.018Z,28.58
2022-09-07T08:56:14.142Z,28.57
2022-09-07T08:58:54.256Z,28.53
2022-09-07T09:08:48.081Z,28.49
2022-09-07T09:11:51.719Z,28.47
2022-09-07T09:14:42.944Z,28.47
2022-09-07T09:17:42.149Z,28.46
2022-09-07T09:20:56.163Z,28.46
2022-09-07T09:23:37.355Z,28.45
2022-09-07T09:31:36.409Z,28.38
2022-09-07T09:34:15.880Z,28.38
2022-09-07T09:36:43.746Z,28.34
2022-09-07T09:39:37.496Z,28.36
2022-09-07T09:42:08.644Z,28.32
2022-09-07T09:44:38.560Z,28.29
2022-09-07T09:47:33.437Z,28.29
2022-09-07T09:52:51.568Z,28.25
2022-09-07T09:55:51.968Z,28.23
2022-09-07T10:01:27.090Z,28.20
2022-09-07T10:06:28.401Z,28.15
2022-09-07T10:09:00.628Z,28.13
2022-09-07T10:17:42.184Z,28.09
2022-09-07T10:20:21.958Z,28.06
2022-09-07T10:22:55.275Z,28.04
2022-09-07T10:25:37.458Z,28.04
2022-09-07T10:28:15.314Z,28.04
2022-09-07T10:31:11.048Z,28.04
2022-09-07T10:34:26.302Z,28.04
2022-09-07T10:46:04.404Z,27.94
2022-09-07T10:49:03.558Z,27.92
2022-09-07T10:51:43.204Z,27.90
2022-09-07T10:54:42.859Z,27.90
2022-09-07T10:57:49.315Z,27.88
2022-09-07T11:03:25.295Z,27.82
2022-09-07T11:05:58.804Z,27.78
2022-09-07T11:09:20.763Z,27.84
2022-09-07T11:12:02.518Z,27.82
2022-09-07T11:14:42.131Z,27.87
2022-09-07T11:18:01.558Z,27.87
2022-09-07T11:27:12.373Z,27.85
2022-09-07T11:30:01.578Z,27.87
2022-09-07T11:32:38.662Z,27.90
2022-09-07T11:35:24.706Z,27.93
2022-09-07T11:38:00.721Z,27.94
2022-09-07T11:40:52.993Z,28.01
2022-09-07T11:43:27.277Z,28.03
2022-09-07T11:53:48.833Z,28.41
2022-09-07T11:56:37.250Z,28.51
2022-09-07T11:59:27.795Z,28.63
2022-09-07T12:02:15.527Z,28.73
2022-09-07T12:04:56.565Z,28.86
2022-09-07T12:07:24.122Z,29.05
2022-09-07T12:09:55.405Z,29.20
2022-09-07T12:18:14.658Z,29.67
2022-09-07T12:20:45.802Z,29.84
2022-09-07T12:23:15.821Z,30.03
2022-09-07T12:26:31.429Z,30.22
2022-09-07T12:28:58.712Z,30.39
2022-09-07T12:31:58.753Z,30.60
2022-09-07T12:34:32.749Z,30.75
2022-09-07T12:40:36.029Z,31.12
2022-09-07T12:43:15.927Z,31.31
2022-09-07T12:45:51.788Z,31.43
2022-09-07T12:48:19.089Z,31.56
2022-09-07T12:51:03.324Z,31.75
2022-09-07T12:53:46.017Z,31.88
2022-09-07T12:56:29.010Z,32.06
2022-09-07T13:05:02.561Z,32.71
2022-09-07T13:07:55.801Z,32.91
2022-09-07T13:10:36.736Z,33.05
2022-09-07T13:13:04.543Z,33.20
2022-09-07T13:15:55.604Z,33.36
2022-09-07T13:18:26.811Z,33.52
2022-09-07T13:21:14.223Z,33.63
2022-09-07T13:29:42.529Z,34.06
2022-09-07T13:35:27.303Z,34.39
2022-09-07T13:38:04.260Z,34.59
2022-09-07T13:40:41.864Z,34.72
2022-09-07T13:43:21.100Z,34.86
2022-09-07T13:51:07.597Z,35.08
2022-09-07T13:54:01.795Z,35.23
2022-09-07T13:56:58.260Z,35.51
2022-09-07T13:59:28.683Z,35.70
2022-09-07T14:01:57.147Z,35.86
2022-09-07T14:04:39.453Z,35.91
2022-09-07T14:07:22.166Z,35.80
2022-09-07T14:16:44.150Z,36.31
2022-09-07T14:19:24.009Z,36.58
2022-09-07T14:22:05.017Z,36.79
2022-09-07T14:24:41.978Z,36.90
2022-09-07T14:27:26.271Z,37.07
2022-09-07T14:29:53.786Z,37.20
2022-09-07T14:32:27.173Z,37.16
2022-09-07T14:40:04.429Z,37.21
2022-09-07T14:42:32.121Z,37.40
2022-09-07T14:45:32.347Z,37.75
2022-09-07T14:48:02.030Z,37.96
2022-09-07T14:50:35.040Z,37.92
2022-09-07T14:56:31.796Z,37.53
2022-09-07T15:04:03.849Z,37.35
2022-09-07T15:09:36.453Z,37.83
2022-09-07T15:12:15.558Z,38.28
2022-09-07T15:14:47.849Z,38.76
2022-09-07T15:17:48.178Z,38.99
2022-09-07T15:23:35.830Z,38.73
2022-09-07T15:26:04.136Z,38.58
2022-09-07T15:31:54.370Z,38.04
2022-09-07T15:34:18.905Z,37.69
2022-09-07T15:36:55.395Z,37.53
2022-09-07T15:39:26.965Z,37.39
2022-09-07T15:49:50.337Z,38.09
2022-09-07T15:56:25.320Z,38.96
2022-09-07T15:58:54.116Z,39.25
2022-09-07T16:07:07.049Z,39.40
2022-09-07T16:09:37.675Z,39.29
2022-09-07T16:14:56.361Z,39.37
2022-09-07T16:17:28.129Z,39.63
2022-09-07T16:20:03.854Z,39.64
2022-09-07T16:29:04.479Z,39.80
2022-09-07T16:31:35.940Z,40.22
2022-09-07T16:34:04.390Z,40.53
2022-09-07T16:36:35.301Z,40.85
2022-09-07T16:39:03.896Z,41.13
2022-09-07T16:41:36.223Z,41.40
2022-09-07T16:44:03.700Z,41.38
2022-09-07T16:51:07.545Z,41.81
2022-09-07T16:53:35.948Z,42.08
2022-09-07T16:56:09.003Z,42.27
2022-09-07T16:58:39.277Z,42.38
2022-09-07T17:01:14.752Z,42.48
2022-09-07T17:03:44.185Z,42.41
2022-09-07T17:10:06.298Z,42.59
2022-09-07T17:12:33.748Z,42.49
2022-09-07T17:15:02.982Z,42.56
2022-09-07T17:17:30.437Z,42.51
2022-09-07T17:19:58.155Z,42.72
2022-09-07T17:22:26.320Z,43.00
2022-09-07T17:24:53.658Z,43.03
2022-09-07T17:27:23.880Z,43.13
2022-09-07T17:34:57.975Z,42.33
2022-09-07T17:37:25.676Z,42.01
2022-09-07T17:39:53.744Z,41.64
2022-09-07T17:42:25.548Z,41.02
2022-09-07T17:44:53.873Z,40.41
2022-09-07T17:47:23.033Z,39.95
2022-09-07T17:49:50.861Z,39.38
2022-09-07T17:52:18.178Z,38.86
2022-09-07T17:57:25.704Z,38.04
2022-09-07T18:02:43.109Z,37.23
2022-09-07T18:05:12.133Z,37.10
2022-09-07T18:07:39.515Z,37.33
2022-09-07T18:10:08.577Z,37.57
2022-09-07T18:12:36.319Z,37.67
2022-09-07T18:22:53.427Z,38.30
2022-09-07T18:25:22.817Z,38.43
2022-09-07T18:30:42.961Z,38.83
2022-09-07T18:33:12.133Z,38.96
2022-09-07T18:35:39.415Z,39.04
2022-09-07T18:38:08.404Z,39.15
2022-09-07T18:48:23.508Z,38.63
2022-09-07T18:50:54.565Z,38.53
2022-09-07T18:53:24.147Z,38.44
2022-09-07T18:55:52.716Z,38.38
2022-09-07T18:58:22.178Z,38.55
2022-09-07T19:00:53.782Z,38.67
2022-09-07T19:03:23.007Z,38.73
2022-09-07T19:05:52.839Z,38.66
2022-09-07T19:13:28.008Z,38.44
2022-09-07T19:16:02.643Z,38.64
2022-09-07T19:18:31.660Z,38.56
2022-09-07T19:21:16.151Z,38.59
2022-09-07T19:27:27.051Z,38.32
2022-09-07T19:29:55.669Z,38.40
2022-09-07T19:37:33.602Z,38.50
2022-09-07T19:40:01.844Z,38.61
2022-09-07T19:42:29.456Z,38.49
2022-09-07T19:44:57.034Z,38.36
2022-09-07T19:47:24.729Z,38.34
2022-09-07T19:49:56.499Z,38.28
2022-09-07T19:52:24.069Z,38.18
2022-09-07T19:54:53.346Z,38.12
2022-09-07T20:02:25.898Z,38.47
2022-09-07T20:04:53.928Z,38.50
2022-09-07T20:07:21.181Z,38.25
2022-09-07T20:09:50.861Z,38.29
2022-09-07T20:12:22.207Z,38.35
2022-09-07T20:14:49.485Z,38.40
2022-09-07T20:17:16.958Z,38.30
2022-09-07T20:24:40.994Z,37.87
2022-09-07T20:27:08.449Z,37.71
2022-09-07T20:29:35.953Z,37.55
2022-09-07T20:32:03.980Z,37.45
2022-09-07T20:34:33.876Z,37.32
2022-09-07T20:37:01.972Z,37.25
2022-09-07T20:39:29.331Z,37.18
2022-09-07T20:44:42.072Z,37.06
2022-09-07T20:47:09.561Z,36.55
2022-09-07T20:49:36.902Z,36.09
2022-09-07T20:52:04.328Z,35.78
2022-09-07T20:54:33.953Z,35.56
2022-09-07T20:57:04.049Z,35.39
2022-09-07T20:59:33.190Z,35.25
2022-09-07T21:02:01.061Z,35.16
2022-09-07T21:09:39.005Z,35.32
2022-09-07T21:12:06.476Z,35.51
2022-09-07T21:14:35.445Z,35.62
2022-09-07T21:17:02.833Z,35.65
2022-09-07T21:19:30.097Z,35.62
2022-09-07T21:21:57.768Z,35.60
2022-09-07T21:24:25.271Z,35.63
2022-09-07T21:35:39.486Z,35.58
2022-09-07T21:38:06.875Z,35.48
2022-09-07T21:40:34.857Z,35.56
2022-09-07T21:43:02.293Z,35.58
2022-09-07T21:45:33.462Z,35.44
2022-09-07T21:48:00.846Z,35.24
2022-09-07T21:50:28.141Z,35.22
2022-09-07T21:52:56.136Z,35.34
2022-09-07T22:02:42.392Z,35.21
2022-09-07T22:05:10.097Z,35.14
2022-09-07T22:07:37.593Z,35.09
2022-09-07T22:10:06.454Z,35.06
2022-09-07T22:12:35.246Z,35.01
2022-09-07T22:15:03.521Z,34.95
2022-09-07T22:17:31.123Z,34.85
2022-09-07T22:26:29.550Z,34.42
2022-09-07T22:28:58.785Z,34.29
2022-09-07T22:31:29.834Z,34.13
2022-09-07T22:33:58.904Z,34.04
2022-09-07T22:36:28.030Z,33.95
2022-09-07T22:38:58.378Z,33.88
2022-09-07T22:41:38.098Z,33.85
2022-09-07T22:46:55.681Z,33.70
2022-09-07T22:49:23.115Z,33.63
2022-09-07T22:51:50.764Z,33.53
2022-09-07T22:54:20.254Z,33.49
2022-09-07T22:56:47.626Z,33.45
2022-09-07T22:59:15.457Z,33.45
2022-09-07T23:01:42.914Z,33.42
2022-09-07T23:09:16.371Z,33.22
2022-09-07T23:11:45.333Z,33.09
2022-09-07T23:14:15.934Z,33.03
2022-09-07T23:16:44.181Z,32.99
2022-09-07T23:19:17.854Z,32.97
2022-09-07T23:21:45.782Z,32.90
2022-09-07T23:24:16.712Z,32.85
2022-09-07T23:34:29.123Z,32.67
2022-09-07T23:36:56.610Z,32.66
2022-09-07T23:39:23.906Z,32.64
2022-09-07T23:41:51.367Z,32.57
2022-09-07T23:44:20.509Z,32.48
2022-09-07T23:46:48.465Z,32.42
2022-09-07T23:49:15.779Z,32.37
2022-09-07T23:59:27.352Z,32.24
